createdAt,value
2023-12-19T00:00:51.739Z,22.88
2023-12-19T00:10:55.025Z,18.38
2023-12-19T00:21:00.559Z,21.48
2023-12-19T00:31:04.541Z,37.47
2023-12-19T00:41:08.738Z,24.00
2023-12-19T00:51:12.299Z,19.17
2023-12-19T01:01:16.611Z,22.63
2023-12-19T01:11:19.649Z,22.50
2023-12-19T01:21:24.555Z,25.85
2023-12-19T01:31:27.658Z,24.00
2023-12-19T01:41:32.627Z,26.25
2023-12-19T01:51:36.659Z,27.65
2023-12-19T02:01:41.622Z,27.48
2023-12-19T02:11:44.662Z,28.08
2023-12-19T02:21:48.919Z,28.20
2023-12-19T02:31:53.354Z,30.90
2023-12-19T02:41:56.124Z,25.60
2023-12-19T02:52:00.519Z,23.38
2023-12-19T03:02:03.655Z,20.08
2023-12-19T03:12:09.336Z,19.35
2023-12-19T03:22:12.319Z,19.27
2023-12-19T03:32:16.484Z,16.55
2023-12-19T03:42:19.585Z,15.38
2023-12-19T03:52:24.903Z,17.23
2023-12-19T04:02:27.757Z,15.23
2023-12-19T04:12:32.413Z,16.23
2023-12-19T04:32:40.140Z,18.50
2023-12-19T04:42:43.678Z,15.52
2023-12-19T04:52:48.136Z,15.45
2023-12-19T05:02:52.435Z,16.02
2023-12-19T05:12:56.578Z,17.10
2023-12-19T05:22:59.933Z,15.50
2023-12-19T05:33:04.888Z,16.70
2023-12-19T05:43:07.781Z,13.75
2023-12-19T05:53:12.118Z,12.55
2023-12-19T06:03:14.890Z,13.05
2023-12-19T06:13:20.366Z,11.35
2023-12-19T06:23:23.550Z,13.15
2023-12-19T06:33:27.841Z,10.48
2023-12-19T06:43:30.692Z,10.07
2023-12-19T06:53:34.833Z,10.18
2023-12-19T07:13:42.088Z,8.88
2023-12-19T07:23:44.897Z,8.32
2023-12-19T07:33:49.199Z,7.50
2023-12-19T07:43:52.148Z,6.03
2023-12-19T07:53:56.917Z,8.15
2023-12-19T08:04:00.354Z,7.38
2023-12-19T08:14:04.569Z,7.78
2023-12-19T08:24:07.813Z,7.82
2023-12-19T08:34:12.414Z,8.40
2023-12-19T08:44:15.582Z,9.52
2023-12-19T08:54:19.889Z,7.88
2023-12-19T09:04:23.384Z,7.03
2023-12-19T09:14:27.581Z,7.00
2023-12-19T09:24:32.095Z,6.00
2023-12-19T09:34:36.861Z,6.55
2023-12-19T09:44:41.346Z,5.80
2023-12-19T09:54:45.960Z,5.30
2023-12-19T10:04:49.662Z,6.13
2023-12-19T10:25:02.224Z,4.80
2023-12-19T10:35:07.838Z,4.72
2023-12-19T10:45:11.284Z,4.53
2023-12-19T10:55:23.825Z,5.70
2023-12-19T11:05:32.416Z,4.13
2023-12-19T11:15:40.873Z,6.25
2023-12-19T11:25:48.040Z,5.00
2023-12-19T11:35:53.100Z,9.25
2023-12-19T11:45:56.170Z,5.85
2023-12-19T11:56:09.713Z,5.45
2023-12-19T12:06:13.602Z,4.78
2023-12-19T12:16:17.901Z,4.60
2023-12-19T12:26:22.863Z,3.97
2023-12-19T12:36:29.548Z,3.83
2023-12-19T12:46:32.577Z,3.33
2023-12-19T12:56:38.643Z,5.95
2023-12-19T13:06:44.373Z,4.28
2023-12-19T13:16:49.917Z,4.47
2023-12-19T13:26:52.671Z,6.80
2023-12-19T13:36:56.979Z,5.70
2023-12-19T13:46:59.900Z,9.63
2023-12-19T13:57:04.281Z,8.27
2023-12-19T14:07:09.148Z,7.03
2023-12-19T14:17:14.065Z,7.15
2023-12-19T14:27:17.006Z,7.75
2023-12-19T14:37:21.172Z,14.40
2023-12-19T14:47:25.340Z,8.13
2023-12-19T14:57:29.779Z,21.58
2023-12-19T15:07:32.715Z,10.88
2023-12-19T15:17:37.066Z,8.75
2023-12-19T15:27:39.921Z,12.07
2023-12-19T15:37:44.361Z,10.68
2023-12-19T15:47:47.274Z,10.85
2023-12-19T15:57:52.383Z,13.48
2023-12-19T16:07:55.273Z,10.93
2023-12-19T16:17:59.422Z,12.13
2023-12-19T16:28:02.450Z,10.63
2023-12-19T16:38:07.124Z,11.63
2023-12-19T16:48:10.476Z,16.98
2023-12-19T16:58:14.848Z,11.70
2023-12-19T17:08:17.734Z,11.38
2023-12-19T17:18:23.330Z,29.27
2023-12-19T17:28:26.428Z,13.02
2023-12-19T17:38:30.685Z,12.35
2023-12-19T17:48:33.503Z,13.45
2023-12-19T17:58:38.544Z,9.95
2023-12-19T18:08:42.957Z,9.20
2023-12-19T18:18:55.486Z,9.18
2023-12-19T18:28:58.439Z,13.88
2023-12-19T18:39:02.667Z,12.93
2023-12-19T18:49:05.666Z,12.60
2023-12-19T18:59:12.394Z,9.93
2023-12-19T19:09:15.429Z,8.60
2023-12-19T19:19:19.649Z,9.55
2023-12-19T19:29:22.849Z,10.88
2023-12-19T19:39:29.288Z,10.02
2023-12-19T19:49:43.344Z,22.33
2023-12-19T19:59:54.656Z,11.25
2023-12-19T20:09:57.828Z,8.50
2023-12-19T20:20:03.789Z,8.45
2023-12-19T20:30:08.374Z,15.35
2023-12-19T20:40:14.255Z,8.90
2023-12-19T20:50:17.374Z,21.73
2023-12-19T21:00:24.249Z,13.10
2023-12-19T21:10:28.348Z,8.68
2023-12-19T21:20:32.717Z,8.95
2023-12-19T21:30:35.866Z,6.15
2023-12-19T21:40:40.903Z,4.85
2023-12-19T21:50:46.269Z,3.58
2023-12-19T22:00:50.701Z,3.60
2023-12-19T22:10:53.852Z,4.85
2023-12-19T22:20:59.565Z,2.60
2023-12-19T22:31:03.073Z,3.00
2023-12-19T22:41:08.556Z,3.22
2023-12-19T22:51:11.525Z,3.17
2023-12-19T23:01:21.252Z,4.25
2023-12-19T23:11:24.872Z,1.70
2023-12-19T23:21:29.734Z,2.00
2023-12-19T23:31:39.350Z,2.22
2023-12-19T23:41:46.042Z,1.90
2023-12-19T23:51:49.457Z,3.15
